Terminal Aerodrome Forecast
Issued by NWS

Home | Current Version | Previous Version | Graphics & Text | Print | Product List | Glossary On
Versions: 1 2 3 4 5 6 7 8 9 10 11 12 13 14 15
000
FTUS43 KGRB 260520
TAFAUW
TAF
KAUW 260520Z 2606/2706 29006KT P6SM SCT050 SCT070
      TEMPO 2607/2611 4SM BR SCT050 BKN070
     FM261100 29009KT P6SM BKN040
     FM261400 30011G15KT P6SM VCSH BKN030
     FM262000 32013G21KT P6SM VCSH BKN035
     FM262300 32010KT P6SM FEW040 BKN100
     FM270100 31006KT P6SM SCT100=

USA.gov is the U.S. government's official web portal to all federal, state and local government web resources and services.